Lockwood, Montana
Current Conditions -  °F | °C
As of 12:53 AM on Tuesday 27 Jan 2015 (Local Time) from KBIL Reporting Station
Few Clouds Few Clouds  
Wind Chill: 52°   Ceiling: Unl
Heat Index: 52°   Visibility: 10mi
Dew Point: 26°   Wind: 24mph
Humidity: 37%   Direction: 240°WSW
Pressure: 29.97"   Gusts: NA
Location:  45.6311°N, 108.351°W
Report Text: KBIL 270753Z 24021KT 10SM FEW250 11/M03 A2997 RMK AO2 SLP141 T01111033
Loading
Personal Weather Stations






























Interactive Weather Map New forecast layout! Learn more

10-Day Weather Forecast

Advertisements
Track Severe Weather on mobile